createdAt,value
2023-05-09T00:03:34.082Z,15.70
2023-05-09T00:07:36.015Z,15.60
2023-05-09T00:11:37.698Z,15.60
2023-05-09T00:15:39.333Z,15.60
2023-05-09T00:19:41.789Z,15.70
2023-05-09T00:23:43.469Z,15.70
2023-05-09T00:27:45.264Z,15.70
2023-05-09T00:31:46.967Z,15.80
2023-05-09T00:35:48.746Z,15.70
2023-05-09T00:39:50.706Z,15.60
2023-05-09T00:43:52.416Z,15.40
2023-05-09T00:47:54.234Z,15.20
2023-05-09T00:51:56.768Z,15.30
2023-05-09T00:56:00.488Z,15.30
2023-05-09T01:00:04.349Z,15.50
2023-05-09T01:04:06.094Z,15.60
2023-05-09T01:08:13.065Z,15.50
2023-05-09T01:12:17.752Z,15.50
2023-05-09T01:16:23.850Z,15.30
2023-05-09T01:20:46.433Z,15.10
2023-05-09T01:25:16.473Z,14.90
2023-05-09T01:29:48.218Z,14.80
2023-05-09T01:33:56.536Z,14.70
2023-05-09T01:38:01.855Z,14.90
2023-05-09T01:42:06.164Z,15.00
2023-05-09T01:46:09.240Z,15.00
2023-05-09T01:50:12.642Z,14.90
2023-05-09T01:54:15.175Z,15.00
2023-05-09T01:58:20.249Z,15.00
2023-05-09T02:02:22.170Z,14.80
2023-05-09T02:06:24.798Z,14.90
2023-05-09T02:10:29.772Z,15.10
2023-05-09T02:14:31.688Z,14.90
2023-05-09T02:18:34.222Z,14.80
2023-05-09T02:22:37.125Z,15.00
2023-05-09T02:26:39.117Z,15.00
2023-05-09T02:30:44.272Z,14.90
2023-05-09T02:34:47.292Z,14.70
2023-05-09T02:38:49.048Z,14.80
2023-05-09T02:42:50.658Z,15.00
2023-05-09T02:46:52.275Z,14.60
2023-05-09T02:50:53.896Z,14.50
2023-05-09T02:54:55.563Z,14.60
2023-05-09T02:58:57.509Z,14.70
2023-05-09T03:03:00.243Z,14.40
2023-05-09T03:07:01.947Z,14.60
2023-05-09T03:11:03.632Z,14.70
2023-05-09T03:15:08.820Z,14.70
2023-05-09T03:19:10.487Z,14.70
2023-05-09T03:23:12.218Z,14.70
2023-05-09T03:27:14.067Z,14.80
2023-05-09T03:31:16.355Z,14.90
2023-05-09T03:35:18.224Z,14.70
2023-05-09T03:39:19.900Z,14.70
2023-05-09T03:43:21.945Z,14.70
2023-05-09T03:47:23.608Z,14.60
2023-05-09T03:51:25.663Z,14.60
2023-05-09T03:55:27.624Z,14.30
2023-05-09T03:59:29.283Z,14.50
2023-05-09T04:03:32.181Z,14.40
2023-05-09T04:07:33.989Z,14.30
2023-05-09T04:11:35.633Z,14.00
2023-05-09T04:15:37.337Z,14.10
2023-05-09T04:19:38.957Z,14.30
2023-05-09T04:23:40.715Z,14.40
2023-05-09T04:27:42.529Z,14.40
2023-05-09T04:31:44.260Z,14.50
2023-05-09T04:35:46.056Z,14.70
2023-05-09T04:39:47.854Z,14.80
2023-05-09T04:43:49.617Z,14.80
2023-05-09T04:47:51.300Z,14.90
2023-05-09T04:51:52.953Z,15.00
2023-05-09T04:55:55.158Z,15.00
2023-05-09T04:59:56.801Z,14.90
2023-05-09T05:03:58.430Z,15.00
2023-05-09T05:08:00.200Z,15.20
2023-05-09T05:12:03.696Z,15.40
2023-05-09T05:16:06.713Z,15.30
2023-05-09T05:20:10.511Z,15.30
2023-05-09T05:24:12.400Z,15.30
2023-05-09T05:28:14.141Z,15.40
2023-05-09T05:32:15.848Z,15.50
2023-05-09T05:36:17.814Z,15.70
2023-05-09T05:40:19.542Z,15.70
2023-05-09T05:44:21.356Z,15.80
2023-05-09T05:48:23.508Z,15.90
2023-05-09T05:52:26.425Z,15.90
2023-05-09T05:56:28.594Z,16.00
2023-05-09T06:00:30.351Z,16.30
2023-05-09T06:04:32.174Z,16.20
2023-05-09T06:08:33.844Z,16.10
2023-05-09T06:12:35.570Z,16.20
2023-05-09T06:16:37.318Z,16.20
2023-05-09T06:20:39.328Z,16.20
2023-05-09T06:24:41.071Z,16.20
2023-05-09T06:28:42.848Z,16.20
2023-05-09T06:32:44.630Z,16.10
2023-05-09T06:36:46.373Z,16.20
2023-05-09T06:40:48.046Z,16.20
2023-05-09T06:44:49.740Z,16.30
2023-05-09T06:48:51.378Z,16.30
2023-05-09T06:52:53.062Z,16.30
2023-05-09T06:56:54.712Z,16.20
2023-05-09T07:00:56.546Z,16.40
2023-05-09T07:04:58.183Z,16.40
2023-05-09T07:09:00.831Z,16.40
2023-05-09T07:13:02.656Z,16.40
2023-05-09T07:17:21.236Z,16.50
2023-05-09T07:21:24.804Z,16.50
2023-05-09T07:25:26.436Z,16.50
2023-05-09T07:29:28.117Z,16.50
2023-05-09T07:33:30.264Z,16.60
2023-05-09T07:37:32.103Z,16.80
2023-05-09T07:41:33.931Z,16.80
2023-05-09T07:45:36.372Z,16.70
2023-05-09T07:49:40.146Z,16.90
2023-05-09T07:53:41.850Z,16.90
2023-05-09T07:57:43.488Z,16.80
2023-05-09T08:01:45.460Z,17.00
2023-05-09T08:05:47.154Z,17.00
2023-05-09T08:09:51.306Z,17.00
2023-05-09T08:13:53.163Z,17.20
2023-05-09T08:17:54.923Z,17.40
2023-05-09T08:21:56.679Z,17.70
2023-05-09T08:25:59.004Z,17.70
2023-05-09T08:30:01.538Z,17.70
2023-05-09T08:34:03.415Z,17.90
2023-05-09T08:38:05.017Z,17.80
2023-05-09T08:42:08.431Z,18.10
2023-05-09T08:46:11.605Z,18.50
2023-05-09T08:50:15.528Z,19.00
2023-05-09T08:54:19.277Z,19.00
2023-05-09T08:58:22.744Z,19.40
2023-05-09T09:02:24.518Z,19.30
2023-05-09T09:06:28.101Z,19.20
2023-05-09T09:10:32.454Z,19.10
2023-05-09T09:14:38.271Z,18.90
2023-05-09T09:18:40.349Z,19.20
2023-05-09T09:22:43.861Z,19.30
2023-05-09T09:26:50.070Z,19.20
2023-05-09T09:30:51.725Z,19.20
2023-05-09T09:35:06.948Z,19.10
2023-05-09T09:39:09.161Z,19.10
2023-05-09T09:43:10.933Z,19.40
2023-05-09T09:47:12.554Z,19.40
2023-05-09T09:51:14.211Z,19.30
2023-05-09T09:55:16.324Z,19.60
2023-05-09T09:59:20.005Z,19.50
2023-05-09T10:03:24.203Z,19.60
2023-05-09T10:07:25.904Z,19.50
2023-05-09T10:11:27.718Z,19.50
2023-05-09T10:15:41.246Z,19.70
2023-05-09T10:19:51.442Z,19.90
2023-05-09T10:23:54.336Z,19.80
2023-05-09T10:28:00.287Z,20.00
2023-05-09T10:32:15.379Z,19.90
2023-05-09T10:36:20.329Z,20.10
2023-05-09T10:40:22.517Z,20.10
2023-05-09T10:44:25.719Z,20.10
2023-05-09T10:48:27.968Z,20.10
2023-05-09T10:52:35.726Z,20.20
2023-05-09T10:56:39.842Z,20.30
2023-05-09T11:00:42.485Z,20.10
2023-05-09T11:04:45.312Z,20.10
2023-05-09T11:08:47.927Z,20.20
2023-05-09T11:12:56.184Z,19.90
2023-05-09T11:17:05.220Z,20.40
2023-05-09T11:21:10.050Z,20.80
2023-05-09T11:25:14.080Z,20.70
2023-05-09T11:29:16.102Z,20.90
2023-05-09T11:33:38.495Z,21.10
2023-05-09T11:37:52.430Z,21.10
2023-05-09T11:41:54.980Z,20.80
2023-05-09T11:45:57.224Z,20.90
2023-05-09T11:49:58.942Z,20.80
2023-05-09T11:54:00.754Z,20.80
2023-05-09T11:58:02.512Z,20.90
2023-05-09T12:02:07.750Z,20.90
2023-05-09T12:06:13.769Z,20.70
2023-05-09T12:10:19.113Z,20.60
2023-05-09T12:14:31.602Z,20.60
2023-05-09T12:18:34.574Z,20.60
2023-05-09T12:22:39.736Z,20.80
2023-05-09T12:26:41.783Z,20.80
2023-05-09T12:30:44.372Z,21.00
2023-05-09T12:34:48.358Z,21.00
2023-05-09T12:38:54.506Z,20.90
2023-05-09T12:43:00.773Z,20.90
2023-05-09T12:47:03.563Z,20.60
2023-05-09T12:51:06.451Z,20.90
2023-05-09T12:55:13.526Z,21.00
2023-05-09T12:59:20.827Z,20.70
2023-05-09T13:03:25.222Z,20.80
2023-05-09T13:07:27.160Z,20.70
2023-05-09T13:11:29.465Z,20.50
2023-05-09T13:15:31.354Z,20.50
2023-05-09T13:19:39.196Z,20.10
2023-05-09T13:23:42.290Z,19.00
2023-05-09T13:27:44.048Z,18.80
2023-05-09T13:31:45.721Z,18.70
2023-05-09T13:35:49.035Z,18.40
2023-05-09T13:39:51.000Z,18.20
2023-05-09T13:43:52.700Z,18.20
2023-05-09T13:47:54.367Z,18.40
2023-05-09T13:51:56.096Z,18.40
2023-05-09T13:55:58.324Z,18.40
2023-05-09T14:00:00.286Z,18.40
2023-05-09T14:04:02.649Z,18.20
2023-05-09T14:08:04.632Z,18.20
2023-05-09T14:12:06.873Z,18.20
2023-05-09T14:16:08.932Z,18.10
2023-05-09T14:20:11.262Z,18.10
2023-05-09T14:24:16.043Z,17.90
2023-05-09T14:28:18.173Z,17.70
2023-05-09T14:32:19.811Z,17.60
2023-05-09T14:36:21.790Z,17.50
2023-05-09T14:40:23.481Z,17.50
2023-05-09T14:44:25.349Z,17.40
2023-05-09T14:48:27.553Z,17.30
2023-05-09T14:52:29.262Z,17.30
2023-05-09T14:56:31.090Z,17.30
2023-05-09T15:00:34.032Z,17.30
2023-05-09T15:04:35.930Z,17.30
2023-05-09T15:08:39.481Z,17.20
2023-05-09T15:12:41.358Z,17.20
2023-05-09T15:16:43.188Z,17.10
2023-05-09T15:20:44.916Z,17.10
2023-05-09T15:24:46.591Z,17.20
2023-05-09T15:28:48.284Z,17.00
2023-05-09T15:32:50.014Z,17.00
2023-05-09T15:36:51.759Z,17.00
2023-05-09T15:40:53.621Z,16.90
2023-05-09T15:44:55.475Z,17.10
2023-05-09T15:48:58.368Z,17.00
2023-05-09T15:53:00.140Z,17.10
2023-05-09T15:57:01.869Z,16.90
2023-05-09T16:01:06.083Z,16.90
2023-05-09T16:05:08.135Z,16.90
2023-05-09T16:09:09.816Z,16.70
2023-05-09T16:13:11.755Z,16.80
2023-05-09T16:17:13.531Z,16.70
2023-05-09T16:21:15.185Z,16.80
2023-05-09T16:25:17.129Z,16.70
2023-05-09T16:29:18.811Z,16.70
2023-05-09T16:33:20.801Z,16.60
2023-05-09T16:37:23.528Z,16.60
2023-05-09T16:41:25.114Z,16.60
2023-05-09T16:45:27.573Z,16.60
2023-05-09T16:49:29.328Z,16.70
2023-05-09T16:53:30.986Z,16.40
2023-05-09T16:57:33.289Z,16.50
2023-05-09T17:01:37.078Z,16.40
2023-05-09T17:05:38.788Z,16.30
2023-05-09T17:09:40.689Z,16.40
2023-05-09T17:13:43.941Z,16.40
2023-05-09T17:17:47.416Z,16.40
2023-05-09T17:21:49.294Z,16.30
2023-05-09T17:25:51.322Z,16.30
2023-05-09T17:29:52.996Z,16.20
2023-05-09T17:33:54.677Z,15.90
2023-05-09T17:37:56.369Z,15.50
2023-05-09T17:41:58.648Z,15.70
2023-05-09T17:46:00.303Z,15.80
2023-05-09T17:50:03.639Z,15.70
2023-05-09T17:54:05.669Z,15.60
2023-05-09T17:58:08.214Z,15.40
2023-05-09T18:02:10.847Z,15.50
2023-05-09T18:06:12.830Z,15.50
2023-05-09T18:10:14.910Z,15.60
2023-05-09T18:14:16.851Z,15.40
2023-05-09T18:18:18.730Z,15.40
2023-05-09T18:22:21.640Z,15.30
2023-05-09T18:26:23.319Z,15.20
2023-05-09T18:30:25.081Z,15.10
2023-05-09T18:34:28.120Z,15.10
2023-05-09T18:38:34.527Z,15.10
2023-05-09T18:42:36.270Z,15.00
2023-05-09T18:46:38.051Z,15.00
2023-05-09T18:50:39.982Z,14.80
2023-05-09T18:54:42.148Z,14.90
2023-05-09T18:58:43.852Z,14.90
2023-05-09T19:02:45.639Z,14.90
2023-05-09T19:06:47.419Z,14.80
2023-05-09T19:10:49.134Z,14.70
2023-05-09T19:14:50.966Z,14.30
2023-05-09T19:18:56.723Z,14.30
2023-05-09T19:22:59.208Z,14.30
2023-05-09T19:27:01.087Z,14.10
2023-05-09T19:31:02.826Z,14.00
2023-05-09T19:35:04.868Z,14.00
2023-05-09T19:39:09.084Z,14.00
2023-05-09T19:43:11.227Z,13.90
2023-05-09T19:47:12.965Z,14.00
2023-05-09T19:51:15.456Z,13.90
2023-05-09T19:55:17.121Z,13.80
2023-05-09T19:59:18.919Z,13.70
2023-05-09T20:03:20.823Z,13.60
2023-05-09T20:07:22.622Z,13.60
2023-05-09T20:11:24.322Z,13.60
2023-05-09T20:15:26.122Z,13.50
2023-05-09T20:19:27.999Z,13.60
2023-05-09T20:23:30.128Z,13.40
2023-05-09T20:27:31.861Z,13.40
2023-05-09T20:31:33.778Z,13.30
2023-05-09T20:35:36.031Z,13.30
2023-05-09T20:39:37.672Z,13.20
2023-05-09T20:43:39.449Z,13.30
2023-05-09T20:47:41.164Z,13.30
2023-05-09T20:51:42.801Z,13.30
2023-05-09T20:55:44.490Z,13.30
2023-05-09T20:59:46.111Z,13.30
2023-05-09T21:03:47.957Z,13.40
2023-05-09T21:07:49.609Z,13.30
2023-05-09T21:11:51.307Z,13.20
2023-05-09T21:15:53.016Z,13.20
2023-05-09T21:19:54.645Z,13.30
2023-05-09T21:23:56.264Z,13.20
2023-05-09T21:27:57.961Z,13.20
2023-05-09T21:32:00.179Z,13.20
2023-05-09T21:36:02.192Z,13.20
2023-05-09T21:40:05.687Z,13.30
2023-05-09T21:44:07.795Z,13.20
2023-05-09T21:48:09.507Z,13.20
2023-05-09T21:52:11.173Z,13.20
2023-05-09T21:56:12.921Z,13.10
2023-05-09T22:00:16.772Z,13.10
2023-05-09T22:04:18.729Z,13.10
2023-05-09T22:08:20.543Z,13.20
2023-05-09T22:12:22.950Z,13.10
2023-05-09T22:16:24.666Z,13.00
2023-05-09T22:20:26.777Z,13.10
2023-05-09T22:24:28.406Z,13.00
2023-05-09T22:28:30.278Z,13.00
2023-05-09T22:32:32.239Z,13.10
2023-05-09T22:36:36.263Z,13.00
2023-05-09T22:40:38.054Z,13.10
2023-05-09T22:44:40.158Z,13.10
2023-05-09T22:48:41.817Z,13.10
2023-05-09T22:52:43.545Z,13.10
2023-05-09T22:56:46.288Z,13.20
2023-05-09T23:00:47.928Z,13.20
2023-05-09T23:04:49.563Z,13.20
2023-05-09T23:08:51.164Z,13.10
2023-05-09T23:12:52.881Z,13.30
2023-05-09T23:16:55.997Z,13.40
2023-05-09T23:20:57.607Z,13.40
2023-05-09T23:25:00.768Z,13.40
2023-05-09T23:29:02.368Z,13.30
2023-05-09T23:33:04.323Z,13.40
2023-05-09T23:37:06.388Z,13.30
2023-05-09T23:41:08.020Z,13.30
2023-05-09T23:45:10.215Z,13.10
2023-05-09T23:49:13.233Z,13.20
2023-05-09T23:53:14.870Z,13.20
2023-05-09T23:57:16.572Z,13.20
